KSYI/SYI METAR and TAF weather

Enter ICAO airport designator
Station Type Date Time Source
KSYI METAR 2018/12/15 01:55 UTC NOAA

KSYI 150155Z AUTO 09003KT 10SM OVC019 13/12 A2982 RMK A01


Station Type Date Time Source
KSYI Decoded METAR 2018/12/15 01:55 UTC NOAA

Station name not available
Dec 14, 2018 - 08:55 PM EST / 2018.12.15 0155 UTC
Wind: from the E (090 degrees) at 3 MPH (3 KT):0
Visibility: 10 mile(s):0
Sky conditions: overcast
Temperature: 55 F (13 C)
Dew Point: 53 F (12 C)
Relative Humidity: 93%
Pressure (altimeter): 29.82 in. Hg (1009 hPa)
ob: KSYI 150155Z AUTO 09003KT 10SM OVC019 13/12 A2982 RMK A01
cycle: 2

Station Type Date Time Source
KSYI TAF UTC NOAA

Error!


Example: see airport list